createdAt,value
2023-03-17T00:00:40.029Z,7.6
2023-03-17T00:01:39.990Z,7.6
2023-03-17T00:02:39.999Z,7.6
2023-03-17T00:03:40.027Z,7.6
2023-03-17T00:04:39.991Z,7.6
2023-03-17T00:05:40.008Z,7.6
2023-03-17T00:06:39.995Z,7.7
2023-03-17T00:07:39.983Z,7.7
2023-03-17T00:08:39.987Z,7.7
2023-03-17T00:09:39.988Z,7.7
2023-03-17T00:10:39.989Z,7.7
2023-03-17T00:11:39.988Z,7.7
2023-03-17T00:12:40.022Z,7.7
2023-03-17T00:13:39.994Z,7.7
2023-03-17T00:14:39.993Z,7.7
2023-03-17T00:15:40.001Z,7.7
2023-03-17T00:16:39.995Z,7.7
2023-03-17T00:17:40.015Z,7.7
2023-03-17T00:18:40.034Z,7.6
2023-03-17T00:19:40.001Z,7.6
2023-03-17T00:20:40.002Z,7.6
2023-03-17T00:21:39.985Z,7.6
2023-03-17T00:22:40.021Z,7.6
2023-03-17T00:23:39.984Z,7.6
2023-03-17T00:24:39.994Z,7.6
2023-03-17T00:25:39.988Z,7.6
2023-03-17T00:26:39.989Z,7.6
2023-03-17T00:27:39.998Z,7.6
2023-03-17T00:28:39.993Z,7.6
2023-03-17T00:29:39.991Z,7.6
2023-03-17T00:30:39.994Z,7.6
2023-03-17T00:31:40.165Z,7.6
2023-03-17T00:32:40.036Z,7.6
2023-03-17T00:33:39.983Z,7.6
2023-03-17T00:34:39.992Z,7.6
2023-03-17T00:35:40.007Z,7.6
2023-03-17T00:36:39.990Z,7.7
2023-03-17T00:37:40.006Z,7.7
2023-03-17T00:38:39.985Z,7.7
2023-03-17T00:39:39.983Z,7.7
2023-03-17T00:40:39.994Z,7.7
2023-03-17T00:41:40.000Z,7.7
2023-03-17T00:42:40.003Z,7.7
2023-03-17T00:43:39.989Z,7.7
2023-03-17T00:44:39.989Z,7.7
2023-03-17T00:45:40.032Z,7.7
2023-03-17T00:46:40.063Z,7.8
2023-03-17T00:47:40.005Z,7.8
2023-03-17T00:48:39.987Z,7.8
2023-03-17T00:49:40.045Z,7.8
2023-03-17T00:50:40.000Z,7.8
2023-03-17T00:51:39.986Z,7.9
2023-03-17T00:52:39.988Z,7.9
2023-03-17T00:53:39.987Z,7.9
2023-03-17T00:54:40.026Z,7.9
2023-03-17T00:55:40.073Z,8
2023-03-17T00:56:40.271Z,8
2023-03-17T00:57:39.986Z,8
2023-03-17T00:58:39.984Z,8
2023-03-17T00:59:40.107Z,8.1
2023-03-17T01:00:39.999Z,8.1
2023-03-17T01:01:40.017Z,8.1
2023-03-17T01:02:39.981Z,8.1
2023-03-17T01:03:40.002Z,8.1
2023-03-17T01:04:39.981Z,8.2
2023-03-17T01:05:39.988Z,8.2
2023-03-17T01:06:39.983Z,8.2
2023-03-17T01:07:39.989Z,8.2
2023-03-17T01:08:39.980Z,8.2
2023-03-17T01:09:39.990Z,8.2
2023-03-17T01:10:39.986Z,8.3
2023-03-17T01:11:39.990Z,8.3
2023-03-17T01:12:40.201Z,8.3
2023-03-17T01:13:39.984Z,8.3
2023-03-17T01:14:40.220Z,8.3
2023-03-17T01:15:40.071Z,8.3
2023-03-17T01:16:40.329Z,8.3
2023-03-17T01:17:40.222Z,8.3
2023-03-17T01:18:40.070Z,8.3
2023-03-17T01:19:40.234Z,8.2
2023-03-17T01:20:40.003Z,8.3
2023-03-17T01:21:40.256Z,8.3
2023-03-17T01:22:39.980Z,8.3
2023-03-17T01:23:40.034Z,8.2
2023-03-17T01:24:40.271Z,8.2
2023-03-17T01:25:40.198Z,8.2
2023-03-17T01:26:40.083Z,8.2
2023-03-17T01:27:40.276Z,8.2
2023-03-17T01:28:39.999Z,8.2
2023-03-17T01:29:39.986Z,8.1
2023-03-17T01:30:39.981Z,8.1
2023-03-17T01:31:40.052Z,8.1
2023-03-17T01:32:40.119Z,8.1
2023-03-17T01:33:39.985Z,8.1
2023-03-17T01:34:39.992Z,8.1
2023-03-17T01:35:40.026Z,8
2023-03-17T01:36:39.985Z,8
2023-03-17T01:37:39.983Z,8
2023-03-17T01:38:39.988Z,8
2023-03-17T01:39:39.984Z,8
2023-03-17T01:40:39.988Z,8
2023-03-17T01:41:40.035Z,8
2023-03-17T01:42:39.987Z,7.9
2023-03-17T01:43:39.990Z,7.9
2023-03-17T01:44:39.984Z,7.9
2023-03-17T01:45:39.988Z,7.9
2023-03-17T01:46:39.987Z,7.9
2023-03-17T01:47:39.987Z,7.9
2023-03-17T01:48:39.988Z,7.8
2023-03-17T01:49:39.985Z,7.8
2023-03-17T01:50:39.983Z,7.8
2023-03-17T01:51:39.980Z,7.8
2023-03-17T01:52:40.049Z,7.8
2023-03-17T01:53:40.370Z,7.8
2023-03-17T01:54:40.616Z,7.7
2023-03-17T01:55:40.104Z,7.8
2023-03-17T01:56:40.031Z,7.7
2023-03-17T01:57:39.994Z,7.7
2023-03-17T01:58:39.988Z,7.7
2023-03-17T01:59:39.983Z,7.7
2023-03-17T02:00:40.008Z,7.7
2023-03-17T02:01:39.986Z,7.7
2023-03-17T02:02:39.999Z,7.7
2023-03-17T02:03:40.000Z,7.7
2023-03-17T02:04:40.085Z,7.7
2023-03-17T02:05:39.981Z,7.6
2023-03-17T02:06:51.098Z,7.6
2023-03-17T02:07:39.983Z,7.6
2023-03-17T02:08:39.988Z,7.6
2023-03-17T02:09:39.984Z,7.5
2023-03-17T02:10:40.066Z,7.5
2023-03-17T02:11:40.004Z,7.5
2023-03-17T02:12:40.004Z,7.5
2023-03-17T02:13:39.994Z,7.5
2023-03-17T02:14:39.996Z,7.5
2023-03-17T02:15:39.996Z,7.5
2023-03-17T02:16:40.096Z,7.4
2023-03-17T02:17:39.994Z,7.4
2023-03-17T02:18:40.000Z,7.4
2023-03-17T02:19:39.984Z,7.4
2023-03-17T02:20:39.983Z,7.4
2023-03-17T02:21:39.999Z,7.3
2023-03-17T02:22:39.983Z,7.3
2023-03-17T02:23:39.989Z,7.3
2023-03-17T02:24:39.990Z,7.3
2023-03-17T02:25:39.987Z,7.3
2023-03-17T02:26:39.999Z,7.2
2023-03-17T02:27:40.001Z,7.2
2023-03-17T02:28:39.995Z,7.2
2023-03-17T02:29:39.992Z,7.2
2023-03-17T02:30:40.078Z,7.2
2023-03-17T02:31:39.988Z,7.2
2023-03-17T02:32:40.090Z,7.2
2023-03-17T02:33:39.988Z,7.2
2023-03-17T02:34:40.001Z,7.2
2023-03-17T02:35:40.011Z,7.2
2023-03-17T02:36:40.032Z,7.2
2023-03-17T02:37:40.003Z,7.2
2023-03-17T02:38:39.987Z,7.2
2023-03-17T02:39:40.101Z,7.2
2023-03-17T02:40:39.986Z,7.1
2023-03-17T02:41:39.999Z,7.2
2023-03-17T02:42:39.988Z,7.1
2023-03-17T02:43:40.004Z,7.1
2023-03-17T02:44:39.994Z,7.1
2023-03-17T02:45:39.993Z,7.2
2023-03-17T02:46:39.988Z,7.2
2023-03-17T02:47:39.990Z,7.1
2023-03-17T02:48:40.014Z,7.2
2023-03-17T02:49:39.986Z,7.2
2023-03-17T02:50:40.002Z,7.2
2023-03-17T02:51:39.994Z,7.2
2023-03-17T02:52:39.993Z,7.1
2023-03-17T02:53:40.030Z,7.1
2023-03-17T02:54:39.992Z,7
2023-03-17T02:55:39.993Z,6.9
2023-03-17T02:56:39.994Z,6.9
2023-03-17T02:57:39.997Z,6.8
2023-03-17T02:58:40.034Z,6.8
2023-03-17T02:59:39.997Z,6.8
2023-03-17T03:00:39.998Z,6.7
2023-03-17T03:01:40.075Z,6.7
2023-03-17T03:02:40.027Z,6.6
2023-03-17T03:03:40.009Z,6.6
2023-03-17T03:04:39.999Z,6.6
2023-03-17T03:05:40.008Z,6.6
2023-03-17T03:06:39.996Z,6.6
2023-03-17T03:07:40.000Z,6.6
2023-03-17T03:08:40.006Z,6.6
2023-03-17T03:09:39.998Z,6.6
2023-03-17T03:10:39.990Z,6.6
2023-03-17T03:11:39.994Z,6.5
2023-03-17T03:12:40.000Z,6.5
2023-03-17T03:13:40.130Z,6.5
2023-03-17T03:14:39.989Z,6.4
2023-03-17T03:15:40.183Z,6.3
2023-03-17T03:16:39.989Z,6.3
2023-03-17T03:17:39.992Z,6.3
2023-03-17T03:18:40.000Z,6.2
2023-03-17T03:19:40.003Z,6.2
2023-03-17T03:20:39.992Z,6.2
2023-03-17T03:21:39.998Z,6.2
2023-03-17T03:22:39.994Z,6.2
2023-03-17T03:23:39.988Z,6.1
2023-03-17T03:24:39.997Z,6.1
2023-03-17T03:25:39.993Z,6.1
2023-03-17T03:26:39.990Z,6.1
2023-03-17T03:27:39.993Z,6.1
2023-03-17T03:28:39.989Z,6.1
2023-03-17T03:29:39.992Z,6.1
2023-03-17T03:30:40.016Z,6.1
2023-03-17T03:31:40.004Z,6.1
2023-03-17T03:32:40.024Z,6.1
2023-03-17T03:33:40.001Z,6.1
2023-03-17T03:34:39.999Z,6.1
2023-03-17T03:35:40.049Z,6.1
2023-03-17T03:36:39.997Z,6.1
2023-03-17T03:37:39.992Z,6.1
2023-03-17T03:38:39.998Z,6
2023-03-17T03:39:39.995Z,6
2023-03-17T03:40:39.995Z,6
2023-03-17T03:41:39.994Z,6
2023-03-17T03:42:40.015Z,6
2023-03-17T03:43:39.997Z,6
2023-03-17T03:44:39.993Z,6
2023-03-17T03:45:39.995Z,5.9
2023-03-17T03:46:40.019Z,5.9
2023-03-17T03:47:40.002Z,5.9
2023-03-17T03:48:39.994Z,5.9
2023-03-17T03:49:39.991Z,5.8
2023-03-17T03:50:39.988Z,5.8
2023-03-17T03:51:39.990Z,5.8
2023-03-17T03:52:40.003Z,5.8
2023-03-17T03:53:40.008Z,5.8
2023-03-17T03:54:39.993Z,5.7
2023-03-17T03:55:39.987Z,5.7
2023-03-17T03:56:39.989Z,5.7
2023-03-17T03:57:40.001Z,5.7
2023-03-17T03:58:40.030Z,5.7
2023-03-17T03:59:39.992Z,5.6
2023-03-17T04:00:39.994Z,5.6
2023-03-17T04:01:40.028Z,5.5
2023-03-17T04:02:40.014Z,5.5
2023-03-17T04:03:40.012Z,5.4
2023-03-17T04:04:40.035Z,5.4
2023-03-17T04:05:39.991Z,5.4
2023-03-17T04:06:39.989Z,5.4
2023-03-17T04:07:39.985Z,5.4
2023-03-17T04:08:40.011Z,5.3
2023-03-17T04:09:39.989Z,5.3
2023-03-17T04:10:39.983Z,5.3
2023-03-17T04:11:39.982Z,5.3
2023-03-17T04:12:39.989Z,5.3
2023-03-17T04:13:40.015Z,5.2
2023-03-17T04:14:39.990Z,5.2
2023-03-17T04:15:39.985Z,5.2
2023-03-17T04:16:42.195Z,5.2
2023-03-17T04:17:39.999Z,5.2
2023-03-17T04:18:40.038Z,5.1
2023-03-17T04:19:39.987Z,5.1
2023-03-17T04:20:39.996Z,5.1
2023-03-17T04:21:39.988Z,5.1
2023-03-17T04:22:39.982Z,5.1
2023-03-17T04:23:39.992Z,5.1
2023-03-17T04:24:39.991Z,5.1
2023-03-17T04:25:39.993Z,5.1
2023-03-17T04:26:39.986Z,5.1
2023-03-17T04:27:39.988Z,5.1
2023-03-17T04:28:39.990Z,5.1
2023-03-17T04:29:40.093Z,5.1
2023-03-17T04:30:40.270Z,5.1
2023-03-17T04:31:40.031Z,5.1
2023-03-17T04:32:40.027Z,5.1
2023-03-17T04:33:39.989Z,5.1
2023-03-17T04:34:39.987Z,5.1
2023-03-17T04:35:40.042Z,5.1
2023-03-17T04:36:39.993Z,5.1
2023-03-17T04:37:39.984Z,5.1
2023-03-17T04:38:39.990Z,5
2023-03-17T04:39:39.989Z,5
2023-03-17T04:40:40.009Z,5
2023-03-17T04:41:39.993Z,4.9
2023-03-17T04:42:40.057Z,4.8
2023-03-17T04:43:40.334Z,4.8
2023-03-17T04:44:40.114Z,4.8
2023-03-17T04:45:40.043Z,4.8
2023-03-17T04:46:40.261Z,4.8
2023-03-17T04:47:40.010Z,4.7
2023-03-17T04:48:39.981Z,4.7
2023-03-17T04:49:40.000Z,4.7
2023-03-17T04:50:39.996Z,4.7
2023-03-17T04:51:39.989Z,4.7
2023-03-17T04:52:40.150Z,4.7
2023-03-17T04:53:39.991Z,4.7
2023-03-17T04:54:40.186Z,4.7
2023-03-17T04:55:39.998Z,4.7
2023-03-17T04:56:40.704Z,4.7
2023-03-17T04:57:40.055Z,4.7
2023-03-17T04:58:40.726Z,4.7
2023-03-17T04:59:40.030Z,4.7
2023-03-17T05:00:40.333Z,4.7
2023-03-17T05:01:40.041Z,4.7
2023-03-17T05:02:40.293Z,4.7
2023-03-17T05:03:39.984Z,4.7
2023-03-17T05:04:39.990Z,4.7
2023-03-17T05:05:39.990Z,4.7
2023-03-17T05:06:39.991Z,4.7
2023-03-17T05:07:39.999Z,4.7
2023-03-17T05:08:39.991Z,4.7
2023-03-17T05:09:39.994Z,4.6
2023-03-17T05:10:39.992Z,4.6
2023-03-17T05:11:39.990Z,4.6
2023-03-17T05:12:39.989Z,4.6
2023-03-17T05:13:39.984Z,4.6
2023-03-17T05:14:39.986Z,4.6
2023-03-17T05:15:39.996Z,4.6
2023-03-17T05:16:39.997Z,4.6
2023-03-17T05:17:40.006Z,4.6
2023-03-17T05:18:39.986Z,4.6
2023-03-17T05:19:39.989Z,4.6
2023-03-17T05:20:40.021Z,4.6
2023-03-17T05:21:39.997Z,4.5
2023-03-17T05:22:39.991Z,4.5
2023-03-17T05:23:39.997Z,4.4
2023-03-17T05:24:39.995Z,4.4
2023-03-17T05:25:39.991Z,4.4
2023-03-17T05:26:39.986Z,4.4
2023-03-17T05:27:40.119Z,4.3
2023-03-17T05:28:40.443Z,4.3
2023-03-17T05:29:40.496Z,4.3
2023-03-17T05:30:40.066Z,4.2
2023-03-17T05:31:39.985Z,4.2
2023-03-17T05:32:40.028Z,4.2
2023-03-17T05:33:40.000Z,4.1
2023-03-17T05:34:40.004Z,4.1
2023-03-17T05:35:40.086Z,4.1
2023-03-17T05:36:40.014Z,4
2023-03-17T05:37:40.018Z,4
2023-03-17T05:38:40.118Z,4
2023-03-17T05:39:39.984Z,4
2023-03-17T05:40:40.018Z,4
2023-03-17T05:41:39.978Z,3.9
2023-03-17T05:42:40.003Z,3.9
2023-03-17T05:43:40.002Z,3.9
2023-03-17T05:44:40.001Z,4
2023-03-17T05:45:40.017Z,3.9
2023-03-17T05:46:40.324Z,3.9
2023-03-17T05:47:39.990Z,3.9
2023-03-17T05:48:39.981Z,4
2023-03-17T05:49:39.986Z,4
2023-03-17T05:50:40.005Z,4
2023-03-17T05:51:39.987Z,4
2023-03-17T05:52:40.017Z,4.1
2023-03-17T05:53:39.986Z,4.2
2023-03-17T05:54:39.991Z,4.3
2023-03-17T05:55:39.994Z,4.3
2023-03-17T05:56:39.991Z,4.4
2023-03-17T05:57:39.992Z,4.4
2023-03-17T05:58:39.987Z,4.4
2023-03-17T05:59:40.001Z,4.4
2023-03-17T06:00:39.983Z,4.4
2023-03-17T06:01:40.200Z,4.4
2023-03-17T06:02:40.079Z,4.4
2023-03-17T06:03:40.021Z,4.4
2023-03-17T06:04:39.998Z,4.4
2023-03-17T06:05:39.988Z,4.4
2023-03-17T06:06:39.998Z,4.4
2023-03-17T06:07:51.109Z,4.4
2023-03-17T06:08:40.016Z,4.4
2023-03-17T06:09:40.019Z,4.4
2023-03-17T06:10:39.991Z,4.4
2023-03-17T06:11:40.017Z,4.4
2023-03-17T06:12:39.983Z,4.4
2023-03-17T06:13:39.985Z,4.4
2023-03-17T06:14:39.988Z,4.4
2023-03-17T06:15:40.051Z,4.4
2023-03-17T06:16:39.996Z,4.4
2023-03-17T06:17:39.989Z,4.5
2023-03-17T06:18:39.997Z,4.5
2023-03-17T06:19:40.013Z,4.5
2023-03-17T06:20:40.007Z,4.5
2023-03-17T06:21:40.093Z,4.6
2023-03-17T06:22:48.902Z,4.7
2023-03-17T06:23:39.993Z,4.7
2023-03-17T06:24:39.987Z,4.8
2023-03-17T06:25:40.003Z,4.8
2023-03-17T06:26:40.025Z,4.8
2023-03-17T06:27:39.985Z,4.9
2023-03-17T06:28:39.989Z,4.9
2023-03-17T06:29:39.984Z,5
2023-03-17T06:30:40.815Z,5.1
2023-03-17T06:31:40.046Z,5.1
2023-03-17T06:32:40.027Z,5.1
2023-03-17T06:33:40.010Z,5.2
2023-03-17T06:34:39.994Z,5.2
2023-03-17T06:35:40.042Z,5.2
2023-03-17T06:36:39.990Z,5.3
2023-03-17T06:37:39.991Z,5.4
2023-03-17T06:38:40.005Z,5.4
2023-03-17T06:39:40.264Z,5.5
2023-03-17T06:40:40.517Z,5.6
2023-03-17T06:41:40.165Z,5.7
2023-03-17T06:42:40.390Z,5.7
2023-03-17T06:43:40.270Z,5.7
2023-03-17T06:44:40.048Z,5.8
2023-03-17T06:45:40.263Z,5.8
2023-03-17T06:46:40.182Z,5.9
2023-03-17T06:47:40.277Z,5.9
2023-03-17T06:48:40.102Z,6
2023-03-17T06:49:40.442Z,6
2023-03-17T06:50:40.325Z,6
2023-03-17T06:51:40.628Z,6
2023-03-17T06:52:40.194Z,6.1
2023-03-17T06:53:40.287Z,6.1
2023-03-17T06:54:39.987Z,6.1
2023-03-17T06:55:40.221Z,6.1
2023-03-17T06:56:40.256Z,6.2
2023-03-17T06:57:40.361Z,6.3
2023-03-17T06:58:40.034Z,6.3
2023-03-17T06:59:40.004Z,6.4
2023-03-17T07:00:39.989Z,6.5
2023-03-17T07:01:40.027Z,6.6
2023-03-17T07:02:39.993Z,6.6
2023-03-17T07:03:40.041Z,6.6
2023-03-17T07:04:40.039Z,6.7
2023-03-17T07:05:39.995Z,6.7
2023-03-17T07:06:39.990Z,6.8
2023-03-17T07:07:39.991Z,6.9
2023-03-17T07:08:40.013Z,6.9
2023-03-17T07:09:40.022Z,7
2023-03-17T07:10:40.006Z,7.1
2023-03-17T07:11:39.992Z,7.1
2023-03-17T07:12:40.012Z,7.2
2023-03-17T07:13:40.010Z,7.2
2023-03-17T07:14:39.988Z,7.2
2023-03-17T07:15:39.991Z,7.3
2023-03-17T07:16:40.048Z,7.4
2023-03-17T07:17:39.996Z,7.5
2023-03-17T07:18:40.002Z,7.6
2023-03-17T07:19:39.999Z,7.7
2023-03-17T07:20:40.030Z,7.7
2023-03-17T07:21:40.035Z,7.7
2023-03-17T07:22:39.988Z,7.8
2023-03-17T07:23:40.013Z,7.8
2023-03-17T07:24:40.025Z,7.9
2023-03-17T07:25:40.000Z,8
2023-03-17T07:26:40.054Z,8
2023-03-17T07:27:40.031Z,8.1
2023-03-17T07:28:39.987Z,8.1
2023-03-17T07:29:39.992Z,8.2
2023-03-17T07:30:40.004Z,8.2
2023-03-17T07:31:40.172Z,8.3
2023-03-17T07:32:40.021Z,8.3
2023-03-17T07:33:39.990Z,8.4
2023-03-17T07:34:40.010Z,8.4
2023-03-17T07:35:40.019Z,8.4
2023-03-17T07:36:39.983Z,8.5
2023-03-17T07:37:39.998Z,8.5
2023-03-17T07:38:39.991Z,8.6
2023-03-17T07:39:40.024Z,8.7
2023-03-17T07:40:40.128Z,8.7
2023-03-17T07:41:39.996Z,8.7
2023-03-17T07:42:39.997Z,8.8
2023-03-17T07:43:40.024Z,8.9
2023-03-17T07:44:40.018Z,9
2023-03-17T07:45:40.018Z,9
2023-03-17T07:46:39.988Z,9
2023-03-17T07:47:40.005Z,9
2023-03-17T07:48:39.992Z,9.1
2023-03-17T07:49:41.886Z,9.2
2023-03-17T07:50:40.025Z,9.2
2023-03-17T07:51:39.990Z,9.3
2023-03-17T07:52:40.015Z,9.3
2023-03-17T07:53:39.988Z,9.4
2023-03-17T07:54:42.733Z,9.4
2023-03-17T07:55:39.990Z,9.5
2023-03-17T07:56:39.991Z,9.5
2023-03-17T07:57:40.029Z,9.6
2023-03-17T07:58:39.985Z,9.7
2023-03-17T07:59:40.048Z,9.8
2023-03-17T08:00:40.006Z,9.8
2023-03-17T08:01:40.077Z,9.8
2023-03-17T08:02:40.112Z,9.9
2023-03-17T08:03:41.429Z,10
2023-03-17T08:04:40.258Z,10.1
2023-03-17T08:05:39.986Z,10.1
2023-03-17T08:06:39.982Z,10.2
2023-03-17T08:07:40.016Z,10.3
2023-03-17T08:08:39.983Z,10.3
2023-03-17T08:09:40.020Z,10.4
2023-03-17T08:10:40.040Z,10.5
2023-03-17T08:11:40.041Z,10.5
2023-03-17T08:12:45.578Z,10.6
2023-03-17T08:13:39.986Z,10.6
2023-03-17T08:14:39.992Z,10.6
2023-03-17T08:15:39.991Z,10.7
2023-03-17T08:16:40.109Z,10.8
2023-03-17T08:17:39.991Z,10.8
2023-03-17T08:18:40.023Z,10.9
2023-03-17T08:19:40.223Z,11
2023-03-17T08:20:40.010Z,11
2023-03-17T08:21:40.016Z,11.1
2023-03-17T08:22:39.990Z,11.2
2023-03-17T08:23:40.024Z,11.3
2023-03-17T08:24:39.985Z,11.3
2023-03-17T08:25:40.026Z,11.4
2023-03-17T08:26:39.995Z,11.5
2023-03-17T08:27:39.992Z,11.6
2023-03-17T08:28:39.993Z,11.7
2023-03-17T08:29:40.011Z,11.7
2023-03-17T08:30:40.446Z,11.7
2023-03-17T08:31:40.034Z,11.7
2023-03-17T08:32:40.368Z,11.8
2023-03-17T08:33:40.377Z,11.9
2023-03-17T08:34:39.987Z,11.9
2023-03-17T08:35:40.274Z,12
2023-03-17T08:36:39.990Z,12
2023-03-17T08:37:40.004Z,12.1
2023-03-17T08:38:39.999Z,12.1
2023-03-17T08:39:40.004Z,12.2
2023-03-17T08:40:40.001Z,12.2
2023-03-17T08:41:39.986Z,12.3
2023-03-17T08:42:39.994Z,12.3
2023-03-17T08:43:40.006Z,12.4
2023-03-17T08:44:40.899Z,12.4
2023-03-17T08:45:40.043Z,12.5
2023-03-17T08:46:40.023Z,12.5
2023-03-17T08:47:39.997Z,12.5
2023-03-17T08:48:39.984Z,12.6
2023-03-17T08:49:39.993Z,12.6
2023-03-17T08:50:39.987Z,12.6
2023-03-17T08:51:39.985Z,12.6
2023-03-17T08:52:39.994Z,12.6
2023-03-17T08:53:39.992Z,12.7
2023-03-17T08:54:40.022Z,12.6
2023-03-17T08:55:39.991Z,12.7
2023-03-17T08:56:39.995Z,12.7
2023-03-17T08:57:39.984Z,12.7
2023-03-17T08:58:39.998Z,12.7
2023-03-17T08:59:40.088Z,12.7
2023-03-17T09:00:39.991Z,12.7
2023-03-17T09:01:40.169Z,12.7
2023-03-17T09:02:40.426Z,12.7
2023-03-17T09:03:40.608Z,12.7
2023-03-17T09:04:40.232Z,12.8
2023-03-17T09:05:40.009Z,12.8
2023-03-17T09:06:46.447Z,12.8
2023-03-17T09:07:40.052Z,12.8
2023-03-17T09:08:39.991Z,12.9
2023-03-17T09:09:39.992Z,12.9
2023-03-17T09:10:40.175Z,12.9
2023-03-17T09:11:40.026Z,12.9
2023-03-17T09:12:40.240Z,12.9
2023-03-17T09:13:40.187Z,13
2023-03-17T09:14:43.691Z,13
2023-03-17T09:15:40.353Z,13
2023-03-17T09:16:40.017Z,13
2023-03-17T09:17:40.266Z,13
2023-03-17T09:18:40.080Z,13.1
2023-03-17T09:19:40.332Z,13.1
2023-03-17T09:20:40.134Z,13.1
2023-03-17T09:21:39.989Z,13.1
2023-03-17T09:22:39.987Z,13.1
2023-03-17T09:23:40.002Z,13.1
2023-03-17T09:24:39.989Z,13.1
2023-03-17T09:25:39.988Z,13.1
2023-03-17T09:26:39.991Z,13.1
2023-03-17T09:27:40.000Z,13.1
2023-03-17T09:28:40.003Z,13.1
2023-03-17T09:29:39.993Z,13.2
2023-03-17T09:30:39.991Z,13.2
2023-03-17T09:31:40.019Z,13.2
2023-03-17T09:32:40.025Z,13.2
2023-03-17T09:33:40.008Z,13.2
2023-03-17T09:34:39.988Z,13.2
2023-03-17T09:35:40.092Z,13.3
2023-03-17T09:36:39.986Z,13.3
2023-03-17T09:37:39.983Z,13.3
2023-03-17T09:38:40.025Z,13.3
2023-03-17T09:39:39.985Z,13.3
2023-03-17T09:40:39.990Z,13.4
2023-03-17T09:41:39.993Z,13.4
2023-03-17T09:42:40.063Z,13.5
2023-03-17T09:43:40.035Z,13.5
2023-03-17T09:44:39.990Z,13.5
2023-03-17T09:45:42.264Z,13.6
2023-03-17T09:46:40.035Z,13.6
2023-03-17T09:47:42.256Z,13.6
2023-03-17T09:48:40.010Z,13.7
2023-03-17T09:49:40.005Z,13.7
2023-03-17T09:50:39.985Z,13.7
2023-03-17T09:51:39.981Z,13.8
2023-03-17T09:52:39.983Z,13.8
2023-03-17T09:53:39.983Z,13.8
2023-03-17T09:54:40.008Z,13.9
2023-03-17T09:55:39.994Z,13.9
2023-03-17T09:56:39.995Z,14
2023-03-17T09:57:40.006Z,14
2023-03-17T09:58:39.998Z,14
2023-03-17T09:59:40.013Z,14.1
2023-03-17T10:00:39.997Z,14.1
2023-03-17T10:01:40.028Z,14.1
2023-03-17T10:02:40.022Z,14.1
2023-03-17T10:03:39.993Z,14.2
2023-03-17T10:04:39.987Z,14.2
2023-03-17T10:05:40.031Z,14.2
2023-03-17T10:06:39.990Z,14.3
2023-03-17T10:07:39.995Z,14.3
2023-03-17T10:08:39.995Z,14.3
2023-03-17T10:09:40.005Z,14.4
2023-03-17T10:10:39.992Z,14.4
2023-03-17T10:11:39.993Z,14.5
2023-03-17T10:12:40.008Z,14.5
2023-03-17T10:13:40.003Z,14.6
2023-03-17T10:14:39.986Z,14.6
2023-03-17T10:15:39.988Z,14.6
2023-03-17T10:16:40.061Z,14.6
2023-03-17T10:17:39.997Z,14.7
2023-03-17T10:18:40.014Z,14.7
2023-03-17T10:19:39.984Z,14.7
2023-03-17T10:20:39.987Z,14.7
2023-03-17T10:21:40.052Z,14.7
2023-03-17T10:22:40.386Z,14.8
2023-03-17T10:23:40.641Z,14.8
2023-03-17T10:24:40.288Z,14.8
2023-03-17T10:25:41.230Z,14.8
2023-03-17T10:26:39.988Z,14.9
2023-03-17T10:27:39.991Z,14.9
2023-03-17T10:28:39.998Z,14.9
2023-03-17T10:29:39.985Z,14.9
2023-03-17T10:30:39.988Z,14.9
2023-03-17T10:31:40.000Z,14.9
2023-03-17T10:32:39.994Z,14.9
2023-03-17T10:33:39.992Z,14.9
2023-03-17T10:34:40.006Z,14.9
2023-03-17T10:35:40.041Z,14.9
2023-03-17T10:36:39.989Z,14.9
2023-03-17T10:37:41.843Z,14.9
2023-03-17T10:38:39.989Z,14.9
2023-03-17T10:39:40.191Z,14.9
2023-03-17T10:40:39.986Z,14.9
2023-03-17T10:41:39.985Z,15
2023-03-17T10:42:39.992Z,15
2023-03-17T10:43:39.986Z,15
2023-03-17T10:44:39.991Z,15.1
2023-03-17T10:45:41.722Z,15.1
2023-03-17T10:46:39.991Z,15.1
2023-03-17T10:47:39.989Z,15.2
2023-03-17T10:48:39.982Z,15.2
2023-03-17T10:49:39.994Z,15.2
2023-03-17T10:50:40.035Z,15.3
2023-03-17T10:51:39.990Z,15.3
2023-03-17T10:52:40.039Z,15.3
2023-03-17T10:53:39.995Z,15.4
2023-03-17T10:54:39.990Z,15.4
2023-03-17T10:55:40.009Z,15.5
2023-03-17T10:56:39.998Z,15.5
2023-03-17T10:57:40.029Z,15.5
2023-03-17T10:58:39.986Z,15.6
2023-03-17T10:59:41.132Z,15.7
2023-03-17T11:00:40.058Z,15.7
2023-03-17T11:01:39.993Z,15.8
2023-03-17T11:02:39.986Z,15.8
2023-03-17T11:03:40.053Z,15.8
2023-03-17T11:04:39.997Z,15.9
2023-03-17T11:05:40.109Z,15.9
2023-03-17T11:06:39.997Z,16
2023-03-17T11:07:40.000Z,16
2023-03-17T11:08:39.998Z,16
2023-03-17T11:09:39.991Z,16.1
2023-03-17T11:10:40.006Z,16.1
2023-03-17T11:11:39.986Z,16.1
2023-03-17T11:12:39.991Z,16.2
2023-03-17T11:13:39.985Z,16.2
2023-03-17T11:14:39.992Z,16.2
2023-03-17T11:15:40.022Z,16.2
2023-03-17T11:16:40.029Z,16.2
2023-03-17T11:17:39.995Z,16.3
2023-03-17T11:18:40.019Z,16.3
2023-03-17T11:19:40.004Z,16.4
2023-03-17T11:20:40.032Z,16.4
2023-03-17T11:21:39.987Z,16.4
2023-03-17T11:22:40.011Z,16.5
2023-03-17T11:23:40.004Z,16.5
2023-03-17T11:24:40.003Z,16.5
2023-03-17T11:25:40.008Z,16.5
2023-03-17T11:26:40.014Z,16.5
2023-03-17T11:27:40.273Z,16.6
2023-03-17T11:28:39.991Z,16.6
2023-03-17T11:29:39.992Z,16.6
2023-03-17T11:30:40.014Z,16.7
2023-03-17T11:31:40.004Z,16.7
2023-03-17T11:32:40.013Z,16.7
2023-03-17T11:33:39.991Z,16.8
2023-03-17T11:34:40.000Z,16.8
2023-03-17T11:35:40.095Z,16.9
2023-03-17T11:36:39.995Z,16.9
2023-03-17T11:37:40.013Z,17
2023-03-17T11:38:39.997Z,17.2
2023-03-17T11:39:39.989Z,17.3
2023-03-17T11:40:39.995Z,17.3
2023-03-17T11:41:39.987Z,17.4
2023-03-17T11:42:39.986Z,17.4
2023-03-17T11:43:39.991Z,17.5
2023-03-17T11:44:39.990Z,17.5
2023-03-17T11:45:40.068Z,17.5
2023-03-17T11:46:40.005Z,17.6
2023-03-17T11:47:39.997Z,17.6
2023-03-17T11:48:40.002Z,17.6
2023-03-17T11:49:40.011Z,17.6
2023-03-17T11:50:39.987Z,17.7
2023-03-17T11:51:40.004Z,17.7
2023-03-17T11:52:39.999Z,17.8
2023-03-17T11:53:40.011Z,17.8
2023-03-17T11:54:40.021Z,17.9
2023-03-17T11:55:40.002Z,17.9
2023-03-17T11:56:39.990Z,18
2023-03-17T11:57:39.994Z,18.1
2023-03-17T11:58:39.994Z,18.1
2023-03-17T11:59:39.991Z,18.2
2023-03-17T12:00:41.563Z,18.2
2023-03-17T12:01:40.000Z,18.3
2023-03-17T12:02:40.012Z,18.3
2023-03-17T12:03:40.160Z,18.4
2023-03-17T12:04:40.035Z,18.4
2023-03-17T12:05:40.002Z,18.4
2023-03-17T12:06:39.999Z,18.4
2023-03-17T12:07:40.050Z,18.4
2023-03-17T12:08:40.260Z,18.4
2023-03-17T12:09:40.541Z,18.4
2023-03-17T12:10:40.060Z,18.3
2023-03-17T12:11:40.260Z,18.3
2023-03-17T12:12:39.982Z,18.3
2023-03-17T12:13:40.135Z,18.2
2023-03-17T12:14:39.986Z,18.2
2023-03-17T12:15:40.016Z,18.2
2023-03-17T12:16:39.993Z,18.1
2023-03-17T12:17:39.995Z,18.1
2023-03-17T12:18:39.994Z,18.1
2023-03-17T12:19:39.983Z,18
2023-03-17T12:20:39.986Z,18.1
2023-03-17T12:21:39.992Z,18
2023-03-17T12:22:40.016Z,18
2023-03-17T12:23:39.991Z,18.1
2023-03-17T12:24:39.983Z,18
2023-03-17T12:25:39.987Z,18
2023-03-17T12:26:39.991Z,18.1
2023-03-17T12:27:39.988Z,18.1
2023-03-17T12:28:39.996Z,18.1
2023-03-17T12:29:39.988Z,18.1
2023-03-17T12:30:40.176Z,18.1
2023-03-17T12:31:39.977Z,18.1
2023-03-17T12:32:40.098Z,18.1
2023-03-17T12:33:39.983Z,18.1
2023-03-17T12:34:40.017Z,18.1
2023-03-17T12:35:40.003Z,18.1
2023-03-17T12:36:39.985Z,18.1
2023-03-17T12:37:40.007Z,18.1
2023-03-17T12:38:39.999Z,18.1
2023-03-17T12:39:40.016Z,18.1
2023-03-17T12:40:40.005Z,18.1
2023-03-17T12:41:39.985Z,18.1
2023-03-17T12:42:39.981Z,18.1
2023-03-17T12:43:40.288Z,18.2
2023-03-17T12:44:40.741Z,18.2
2023-03-17T12:45:39.994Z,18.2
2023-03-17T12:46:40.321Z,18.2
2023-03-17T12:47:40.168Z,18.2
2023-03-17T12:48:39.990Z,18.2
2023-03-17T12:49:40.026Z,18.3
2023-03-17T12:50:40.004Z,18.3
2023-03-17T12:51:40.255Z,18.2
2023-03-17T12:52:40.059Z,18.3
2023-03-17T12:53:40.260Z,18.3
2023-03-17T12:54:40.114Z,18.3
2023-03-17T12:55:39.981Z,18.3
2023-03-17T12:56:39.987Z,18.3
2023-03-17T12:57:39.989Z,18.4
2023-03-17T12:58:39.991Z,18.3
2023-03-17T12:59:40.174Z,18.4
2023-03-17T13:00:39.978Z,18.4
2023-03-17T13:01:40.002Z,18.4
2023-03-17T13:02:39.989Z,18.4
2023-03-17T13:03:40.094Z,18.4
2023-03-17T13:04:39.992Z,18.4
2023-03-17T13:05:39.990Z,18.4
2023-03-17T13:06:39.994Z,18.4
2023-03-17T13:07:39.977Z,18.4
2023-03-17T13:08:40.004Z,18.4
2023-03-17T13:09:39.982Z,18.4
2023-03-17T13:10:40.077Z,18.4
2023-03-17T13:11:40.024Z,18.4
2023-03-17T13:12:39.983Z,18.4
2023-03-17T13:13:39.990Z,18.3
2023-03-17T13:14:39.987Z,18.4
2023-03-17T13:15:39.994Z,18.4
2023-03-17T13:16:40.006Z,18.4
2023-03-17T13:17:40.020Z,18.3
2023-03-17T13:18:39.987Z,18.4
2023-03-17T13:19:39.988Z,18.3
2023-03-17T13:20:39.984Z,18.3
2023-03-17T13:21:40.007Z,18.3
2023-03-17T13:22:39.986Z,18.3
2023-03-17T13:23:40.009Z,18.3
2023-03-17T13:24:39.982Z,18.3
2023-03-17T13:25:39.988Z,18.3
2023-03-17T13:26:40.008Z,18.3
2023-03-17T13:27:40.096Z,18.2
2023-03-17T13:28:39.987Z,18.2
2023-03-17T13:29:39.988Z,18.2
2023-03-17T13:30:40.064Z,18.2
2023-03-17T13:31:40.023Z,18.2
2023-03-17T13:32:40.042Z,18.1
2023-03-17T13:33:40.000Z,18.1
2023-03-17T13:34:39.981Z,18.1
2023-03-17T13:35:40.014Z,18.1
2023-03-17T13:36:40.000Z,18
2023-03-17T13:37:39.992Z,18
2023-03-17T13:38:40.467Z,18
2023-03-17T13:39:40.466Z,18